sensor_id;sensor_type;location;lat;lon;timestamp;P1;durP1;ratioP1;P2;durP2;ratioP2
10096;SDS011;5087;42.662;23.466;2022-12-13T00:00:41;0.40;;;0.40;;
10096;SDS011;5087;42.662;23.466;2022-12-13T00:03:10;0.33;;;0.33;;
10096;SDS011;5087;42.662;23.466;2022-12-13T00:05:41;0.33;;;0.33;;
10096;SDS011;5087;42.662;23.466;2022-12-13T00:08:09;0.30;;;0.30;;
10096;SDS011;5087;42.662;23.466;2022-12-13T00:10:38;0.30;;;0.30;;
10096;SDS011;5087;42.662;23.466;2022-12-13T00:13:06;0.30;;;0.30;;
10096;SDS011;5087;42.662;23.466;2022-12-13T00:15:33;0.30;;;0.30;;
10096;SDS011;5087;42.662;23.466;2022-12-13T00:18:01;0.50;;;0.50;;
10096;SDS011;5087;42.662;23.466;2022-12-13T00:20:28;0.40;;;0.40;;
10096;SDS011;5087;42.662;23.466;2022-12-13T00:22:55;0.40;;;0.40;;
10096;SDS011;5087;42.662;23.466;2022-12-13T00:25:23;0.40;;;0.40;;
10096;SDS011;5087;42.662;23.466;2022-12-13T00:27:54;0.40;;;0.40;;
10096;SDS011;5087;42.662;23.466;2022-12-13T00:30:25;0.30;;;0.30;;
10096;SDS011;5087;42.662;23.466;2022-12-13T00:32:56;0.40;;;0.40;;
10096;SDS011;5087;42.662;23.466;2022-12-13T00:35:23;0.30;;;0.30;;
10096;SDS011;5087;42.662;23.466;2022-12-13T00:37:51;0.33;;;0.33;;
10096;SDS011;5087;42.662;23.466;2022-12-13T00:40:18;0.50;;;0.50;;
10096;SDS011;5087;42.662;23.466;2022-12-13T00:42:46;0.30;;;0.30;;
10096;SDS011;5087;42.662;23.466;2022-12-13T00:45:15;0.40;;;0.40;;
10096;SDS011;5087;42.662;23.466;2022-12-13T00:47:42;0.40;;;0.40;;
10096;SDS011;5087;42.662;23.466;2022-12-13T00:50:11;0.40;;;0.40;;
10096;SDS011;5087;42.662;23.466;2022-12-13T00:52:38;0.50;;;0.50;;
10096;SDS011;5087;42.662;23.466;2022-12-13T00:55:06;0.40;;;0.40;;
10096;SDS011;5087;42.662;23.466;2022-12-13T00:57:34;0.40;;;0.40;;
10096;SDS011;5087;42.662;23.466;2022-12-13T01:00:02;0.40;;;0.40;;
10096;SDS011;5087;42.662;23.466;2022-12-13T01:02:32;0.30;;;0.30;;
10096;SDS011;5087;42.662;23.466;2022-12-13T01:04:59;0.50;;;0.50;;
10096;SDS011;5087;42.662;23.466;2022-12-13T01:07:26;0.40;;;0.40;;
10096;SDS011;5087;42.662;23.466;2022-12-13T01:09:55;0.40;;;0.40;;
10096;SDS011;5087;42.662;23.466;2022-12-13T01:12:23;0.40;;;0.40;;
10096;SDS011;5087;42.662;23.466;2022-12-13T01:14:50;0.40;;;0.40;;
10096;SDS011;5087;42.662;23.466;2022-12-13T01:17:18;0.40;;;0.40;;
10096;SDS011;5087;42.662;23.466;2022-12-13T01:19:46;0.50;;;0.50;;
10096;SDS011;5087;42.662;23.466;2022-12-13T01:22:14;0.53;;;0.53;;
10096;SDS011;5087;42.662;23.466;2022-12-13T01:24:41;0.50;;;0.50;;
10096;SDS011;5087;42.662;23.466;2022-12-13T01:27:08;0.50;;;0.50;;
10096;SDS011;5087;42.662;23.466;2022-12-13T01:29:35;1.63;;;1.63;;
10096;SDS011;5087;42.662;23.466;2022-12-13T01:32:03;0.40;;;0.40;;
10096;SDS011;5087;42.662;23.466;2022-12-13T01:34:30;1.50;;;1.40;;
10096;SDS011;5087;42.662;23.466;2022-12-13T01:36:59;0.60;;;0.60;;
10096;SDS011;5087;42.662;23.466;2022-12-13T01:39:26;0.60;;;0.60;;
10096;SDS011;5087;42.662;23.466;2022-12-13T01:41:54;0.70;;;0.70;;
10096;SDS011;5087;42.662;23.466;2022-12-13T01:47:25;0.60;;;0.60;;
10096;SDS011;5087;42.662;23.466;2022-12-13T01:49:57;0.60;;;0.60;;
10096;SDS011;5087;42.662;23.466;2022-12-13T01:52:30;0.60;;;0.60;;
10096;SDS011;5087;42.662;23.466;2022-12-13T01:55:00;0.60;;;0.60;;
10096;SDS011;5087;42.662;23.466;2022-12-13T01:57:30;0.60;;;0.60;;
10096;SDS011;5087;42.662;23.466;2022-12-13T01:59:59;0.70;;;0.70;;
10096;SDS011;5087;42.662;23.466;2022-12-13T02:02:32;0.70;;;0.70;;
10096;SDS011;5087;42.662;23.466;2022-12-13T02:05:03;1.40;;;1.40;;
10096;SDS011;5087;42.662;23.466;2022-12-13T02:07:34;0.80;;;0.80;;
10096;SDS011;5087;42.662;23.466;2022-12-13T02:10:04;0.80;;;0.80;;
10096;SDS011;5087;42.662;23.466;2022-12-13T02:12:34;0.80;;;0.80;;
10096;SDS011;5087;42.662;23.466;2022-12-13T02:15:03;0.80;;;0.80;;
10096;SDS011;5087;42.662;23.466;2022-12-13T02:17:39;0.80;;;0.80;;
10096;SDS011;5087;42.662;23.466;2022-12-13T02:20:24;0.80;;;0.80;;
10096;SDS011;5087;42.662;23.466;2022-12-13T02:23:15;0.80;;;0.80;;
10096;SDS011;5087;42.662;23.466;2022-12-13T02:26:02;0.90;;;0.90;;
10096;SDS011;5087;42.662;23.466;2022-12-13T02:28:50;0.90;;;0.90;;
10096;SDS011;5087;42.662;23.466;2022-12-13T02:31:35;0.90;;;0.90;;
10096;SDS011;5087;42.662;23.466;2022-12-13T02:34:08;0.80;;;0.80;;
10096;SDS011;5087;42.662;23.466;2022-12-13T02:36:40;0.90;;;0.90;;
10096;SDS011;5087;42.662;23.466;2022-12-13T02:39:13;0.70;;;0.70;;
10096;SDS011;5087;42.662;23.466;2022-12-13T02:41:46;0.80;;;0.80;;
10096;SDS011;5087;42.662;23.466;2022-12-13T02:44:16;0.80;;;0.80;;
10096;SDS011;5087;42.662;23.466;2022-12-13T02:46:49;0.80;;;0.80;;
10096;SDS011;5087;42.662;23.466;2022-12-13T02:49:23;0.70;;;0.70;;
10096;SDS011;5087;42.662;23.466;2022-12-13T02:51:54;0.70;;;0.70;;
10096;SDS011;5087;42.662;23.466;2022-12-13T02:54:23;0.80;;;0.80;;
10096;SDS011;5087;42.662;23.466;2022-12-13T02:56:54;0.80;;;0.80;;
10096;SDS011;5087;42.662;23.466;2022-12-13T02:59:21;0.80;;;0.80;;
10096;SDS011;5087;42.662;23.466;2022-12-13T03:01:55;1.10;;;1.10;;
10096;SDS011;5087;42.662;23.466;2022-12-13T03:04:33;0.70;;;0.70;;
10096;SDS011;5087;42.662;23.466;2022-12-13T03:07:32;0.80;;;0.80;;
10096;SDS011;5087;42.662;23.466;2022-12-13T03:10:09;0.87;;;0.87;;
10096;SDS011;5087;42.662;23.466;2022-12-13T03:12:45;0.80;;;0.80;;
10096;SDS011;5087;42.662;23.466;2022-12-13T03:15:37;0.90;;;0.90;;
10096;SDS011;5087;42.662;23.466;2022-12-13T03:18:12;0.90;;;0.90;;
10096;SDS011;5087;42.662;23.466;2022-12-13T03:20:44;0.90;;;0.90;;
10096;SDS011;5087;42.662;23.466;2022-12-13T03:23:13;0.80;;;0.80;;
10096;SDS011;5087;42.662;23.466;2022-12-13T03:25:40;0.80;;;0.80;;
10096;SDS011;5087;42.662;23.466;2022-12-13T03:28:09;1.10;;;1.10;;
10096;SDS011;5087;42.662;23.466;2022-12-13T03:30:37;1.23;;;1.23;;
10096;SDS011;5087;42.662;23.466;2022-12-13T03:33:05;0.77;;;0.77;;
10096;SDS011;5087;42.662;23.466;2022-12-13T03:35:34;0.80;;;0.80;;
10096;SDS011;5087;42.662;23.466;2022-12-13T03:38:02;0.90;;;0.90;;
10096;SDS011;5087;42.662;23.466;2022-12-13T03:40:29;1.00;;;1.00;;
10096;SDS011;5087;42.662;23.466;2022-12-13T03:42:59;1.00;;;1.00;;
10096;SDS011;5087;42.662;23.466;2022-12-13T03:45:31;0.90;;;0.90;;
10096;SDS011;5087;42.662;23.466;2022-12-13T03:47:58;2.10;;;2.00;;
10096;SDS011;5087;42.662;23.466;2022-12-13T03:50:25;0.90;;;0.90;;
10096;SDS011;5087;42.662;23.466;2022-12-13T03:55:40;0.70;;;0.70;;
10096;SDS011;5087;42.662;23.466;2022-12-13T03:58:08;0.70;;;0.70;;
10096;SDS011;5087;42.662;23.466;2022-12-13T04:00:36;0.47;;;0.47;;
10096;SDS011;5087;42.662;23.466;2022-12-13T04:03:04;0.50;;;0.50;;
10096;SDS011;5087;42.662;23.466;2022-12-13T04:05:32;0.50;;;0.50;;
10096;SDS011;5087;42.662;23.466;2022-12-13T04:07:59;0.80;;;0.80;;
10096;SDS011;5087;42.662;23.466;2022-12-13T04:10:27;0.50;;;0.50;;
10096;SDS011;5087;42.662;23.466;2022-12-13T04:12:56;0.50;;;0.50;;
10096;SDS011;5087;42.662;23.466;2022-12-13T04:15:41;0.53;;;0.53;;
10096;SDS011;5087;42.662;23.466;2022-12-13T04:18:13;0.50;;;0.50;;
10096;SDS011;5087;42.662;23.466;2022-12-13T04:20:42;0.50;;;0.50;;
10096;SDS011;5087;42.662;23.466;2022-12-13T04:23:09;0.60;;;0.60;;
10096;SDS011;5087;42.662;23.466;2022-12-13T04:25:37;0.50;;;0.50;;
10096;SDS011;5087;42.662;23.466;2022-12-13T04:28:07;0.50;;;0.50;;
10096;SDS011;5087;42.662;23.466;2022-12-13T04:30:34;0.50;;;0.50;;
10096;SDS011;5087;42.662;23.466;2022-12-13T04:33:03;0.90;;;0.90;;
10096;SDS011;5087;42.662;23.466;2022-12-13T04:35:31;0.57;;;0.57;;
10096;SDS011;5087;42.662;23.466;2022-12-13T04:37:58;0.60;;;0.60;;
10096;SDS011;5087;42.662;23.466;2022-12-13T04:40:26;0.50;;;0.50;;
10096;SDS011;5087;42.662;23.466;2022-12-13T04:42:53;0.60;;;0.60;;
10096;SDS011;5087;42.662;23.466;2022-12-13T04:45:25;0.60;;;0.60;;
10096;SDS011;5087;42.662;23.466;2022-12-13T04:47:53;0.50;;;0.50;;
10096;SDS011;5087;42.662;23.466;2022-12-13T04:50:23;2.50;;;2.30;;
10096;SDS011;5087;42.662;23.466;2022-12-13T04:52:50;0.50;;;0.50;;
10096;SDS011;5087;42.662;23.466;2022-12-13T04:55:17;0.60;;;0.60;;
10096;SDS011;5087;42.662;23.466;2022-12-13T04:57:45;0.87;;;0.87;;
10096;SDS011;5087;42.662;23.466;2022-12-13T05:00:13;0.50;;;0.50;;
10096;SDS011;5087;42.662;23.466;2022-12-13T05:02:43;1.30;;;1.30;;
10096;SDS011;5087;42.662;23.466;2022-12-13T05:05:12;0.60;;;0.60;;
10096;SDS011;5087;42.662;23.466;2022-12-13T05:07:39;0.60;;;0.60;;
10096;SDS011;5087;42.662;23.466;2022-12-13T05:10:07;1.00;;;1.00;;
10096;SDS011;5087;42.662;23.466;2022-12-13T05:12:35;0.70;;;0.70;;
10096;SDS011;5087;42.662;23.466;2022-12-13T05:15:03;0.60;;;0.60;;
10096;SDS011;5087;42.662;23.466;2022-12-13T05:17:31;0.70;;;0.70;;
10096;SDS011;5087;42.662;23.466;2022-12-13T05:19:59;0.50;;;0.50;;
10096;SDS011;5087;42.662;23.466;2022-12-13T05:22:26;0.60;;;0.60;;
10096;SDS011;5087;42.662;23.466;2022-12-13T05:24:54;0.40;;;0.40;;
10096;SDS011;5087;42.662;23.466;2022-12-13T05:27:23;0.40;;;0.40;;
10096;SDS011;5087;42.662;23.466;2022-12-13T05:29:51;0.40;;;0.40;;
10096;SDS011;5087;42.662;23.466;2022-12-13T05:32:18;0.40;;;0.40;;
10096;SDS011;5087;42.662;23.466;2022-12-13T05:34:45;0.40;;;0.40;;
10096;SDS011;5087;42.662;23.466;2022-12-13T05:37:14;0.50;;;0.50;;
10096;SDS011;5087;42.662;23.466;2022-12-13T05:39:42;0.40;;;0.40;;
10096;SDS011;5087;42.662;23.466;2022-12-13T05:42:09;0.50;;;0.50;;
10096;SDS011;5087;42.662;23.466;2022-12-13T05:44:36;0.60;;;0.60;;
10096;SDS011;5087;42.662;23.466;2022-12-13T05:47:03;1.10;;;1.10;;
10096;SDS011;5087;42.662;23.466;2022-12-13T05:49:30;0.60;;;0.60;;
10096;SDS011;5087;42.662;23.466;2022-12-13T05:51:58;0.60;;;0.60;;
10096;SDS011;5087;42.662;23.466;2022-12-13T05:54:26;0.60;;;0.60;;
10096;SDS011;5087;42.662;23.466;2022-12-13T05:56:54;1.37;;;1.37;;
10096;SDS011;5087;42.662;23.466;2022-12-13T05:59:21;0.70;;;0.70;;
10096;SDS011;5087;42.662;23.466;2022-12-13T06:01:49;0.83;;;0.83;;
10096;SDS011;5087;42.662;23.466;2022-12-13T06:04:16;0.40;;;0.40;;
10096;SDS011;5087;42.662;23.466;2022-12-13T06:06:44;0.40;;;0.40;;
10096;SDS011;5087;42.662;23.466;2022-12-13T06:09:11;0.33;;;0.33;;
10096;SDS011;5087;42.662;23.466;2022-12-13T06:11:41;0.30;;;0.30;;
10096;SDS011;5087;42.662;23.466;2022-12-13T06:14:09;0.43;;;0.43;;
10096;SDS011;5087;42.662;23.466;2022-12-13T06:16:36;0.40;;;0.40;;
10096;SDS011;5087;42.662;23.466;2022-12-13T06:19:04;0.40;;;0.40;;
10096;SDS011;5087;42.662;23.466;2022-12-13T06:21:32;0.50;;;0.50;;
10096;SDS011;5087;42.662;23.466;2022-12-13T06:24:01;0.60;;;0.60;;
10096;SDS011;5087;42.662;23.466;2022-12-13T06:26:29;0.60;;;0.60;;
10096;SDS011;5087;42.662;23.466;2022-12-13T06:29:00;0.63;;;0.63;;
10096;SDS011;5087;42.662;23.466;2022-12-13T06:31:29;0.77;;;0.77;;
10096;SDS011;5087;42.662;23.466;2022-12-13T06:33:59;0.90;;;0.90;;
10096;SDS011;5087;42.662;23.466;2022-12-13T06:36:27;4.00;;;1.50;;
10096;SDS011;5087;42.662;23.466;2022-12-13T06:38:54;1.10;;;1.10;;
10096;SDS011;5087;42.662;23.466;2022-12-13T06:41:25;0.70;;;0.70;;
10096;SDS011;5087;42.662;23.466;2022-12-13T06:43:53;0.70;;;0.70;;
10096;SDS011;5087;42.662;23.466;2022-12-13T06:46:26;0.80;;;0.80;;
10096;SDS011;5087;42.662;23.466;2022-12-13T06:48:53;0.90;;;0.90;;
10096;SDS011;5087;42.662;23.466;2022-12-13T06:51:20;1.00;;;1.00;;
10096;SDS011;5087;42.662;23.466;2022-12-13T06:53:49;0.80;;;0.80;;
10096;SDS011;5087;42.662;23.466;2022-12-13T06:56:18;1.00;;;1.00;;
10096;SDS011;5087;42.662;23.466;2022-12-13T06:58:47;0.90;;;0.90;;
10096;SDS011;5087;42.662;23.466;2022-12-13T07:01:15;1.10;;;1.10;;
10096;SDS011;5087;42.662;23.466;2022-12-13T07:03:45;0.90;;;0.90;;
10096;SDS011;5087;42.662;23.466;2022-12-13T07:06:13;1.00;;;1.00;;
10096;SDS011;5087;42.662;23.466;2022-12-13T07:08:43;1.10;;;1.10;;
10096;SDS011;5087;42.662;23.466;2022-12-13T07:11:14;1.30;;;1.30;;
10096;SDS011;5087;42.662;23.466;2022-12-13T07:13:42;1.20;;;1.20;;
10096;SDS011;5087;42.662;23.466;2022-12-13T07:16:09;1.20;;;1.20;;
10096;SDS011;5087;42.662;23.466;2022-12-13T07:18:37;1.30;;;1.30;;
10096;SDS011;5087;42.662;23.466;2022-12-13T07:21:07;1.30;;;1.30;;
10096;SDS011;5087;42.662;23.466;2022-12-13T07:23:36;1.57;;;1.57;;
10096;SDS011;5087;42.662;23.466;2022-12-13T07:26:05;1.40;;;1.40;;
10096;SDS011;5087;42.662;23.466;2022-12-13T07:28:34;1.40;;;1.40;;
10096;SDS011;5087;42.662;23.466;2022-12-13T07:31:03;1.70;;;1.70;;
10096;SDS011;5087;42.662;23.466;2022-12-13T07:33:33;1.90;;;1.90;;
10096;SDS011;5087;42.662;23.466;2022-12-13T07:36:01;2.00;;;2.00;;
10096;SDS011;5087;42.662;23.466;2022-12-13T07:38:32;1.97;;;1.97;;
10096;SDS011;5087;42.662;23.466;2022-12-13T07:41:00;2.10;;;2.10;;
10096;SDS011;5087;42.662;23.466;2022-12-13T07:43:28;2.87;;;2.77;;
10096;SDS011;5087;42.662;23.466;2022-12-13T07:45:56;2.10;;;2.10;;
10096;SDS011;5087;42.662;23.466;2022-12-13T07:48:24;2.20;;;2.20;;
10096;SDS011;5087;42.662;23.466;2022-12-13T07:50:53;2.00;;;2.00;;
10096;SDS011;5087;42.662;23.466;2022-12-13T07:53:21;1.80;;;1.80;;
10096;SDS011;5087;42.662;23.466;2022-12-13T07:55:52;1.90;;;1.90;;
10096;SDS011;5087;42.662;23.466;2022-12-13T07:58:19;2.47;;;2.47;;
10096;SDS011;5087;42.662;23.466;2022-12-13T08:00:47;2.40;;;2.40;;
10096;SDS011;5087;42.662;23.466;2022-12-13T08:03:14;2.93;;;2.93;;
10096;SDS011;5087;42.662;23.466;2022-12-13T08:05:42;2.10;;;2.10;;
10096;SDS011;5087;42.662;23.466;2022-12-13T08:08:10;2.10;;;2.10;;
10096;SDS011;5087;42.662;23.466;2022-12-13T08:10:37;3.00;;;2.80;;
10096;SDS011;5087;42.662;23.466;2022-12-13T08:13:06;2.40;;;2.40;;
10096;SDS011;5087;42.662;23.466;2022-12-13T08:15:33;2.10;;;2.10;;
10096;SDS011;5087;42.662;23.466;2022-12-13T08:18:00;2.30;;;2.30;;
10096;SDS011;5087;42.662;23.466;2022-12-13T08:20:28;2.30;;;2.30;;
10096;SDS011;5087;42.662;23.466;2022-12-13T08:22:56;2.30;;;2.30;;
10096;SDS011;5087;42.662;23.466;2022-12-13T08:25:24;2.50;;;2.50;;
10096;SDS011;5087;42.662;23.466;2022-12-13T08:28:01;2.50;;;2.50;;
10096;SDS011;5087;42.662;23.466;2022-12-13T08:30:33;3.20;;;3.20;;
10096;SDS011;5087;42.662;23.466;2022-12-13T08:33:01;2.50;;;2.50;;
10096;SDS011;5087;42.662;23.466;2022-12-13T08:35:29;2.70;;;2.70;;
10096;SDS011;5087;42.662;23.466;2022-12-13T08:37:56;2.40;;;2.40;;
10096;SDS011;5087;42.662;23.466;2022-12-13T08:40:24;2.50;;;2.50;;
10096;SDS011;5087;42.662;23.466;2022-12-13T08:42:53;2.70;;;2.70;;
10096;SDS011;5087;42.662;23.466;2022-12-13T08:45:24;2.80;;;2.80;;
10096;SDS011;5087;42.662;23.466;2022-12-13T08:47:53;3.20;;;3.20;;
10096;SDS011;5087;42.662;23.466;2022-12-13T08:50:24;3.20;;;3.20;;
10096;SDS011;5087;42.662;23.466;2022-12-13T08:52:51;3.50;;;3.50;;
10096;SDS011;5087;42.662;23.466;2022-12-13T08:55:19;3.60;;;3.60;;
10096;SDS011;5087;42.662;23.466;2022-12-13T08:57:47;3.60;;;3.60;;
10096;SDS011;5087;42.662;23.466;2022-12-13T09:00:15;3.77;;;3.77;;
10096;SDS011;5087;42.662;23.466;2022-12-13T09:02:45;3.73;;;3.73;;
10096;SDS011;5087;42.662;23.466;2022-12-13T09:05:15;3.70;;;3.70;;
10096;SDS011;5087;42.662;23.466;2022-12-13T09:07:42;3.90;;;3.90;;
10096;SDS011;5087;42.662;23.466;2022-12-13T09:10:09;4.20;;;4.10;;
10096;SDS011;5087;42.662;23.466;2022-12-13T09:12:39;4.00;;;3.90;;
10096;SDS011;5087;42.662;23.466;2022-12-13T09:15:08;4.30;;;4.20;;
10096;SDS011;5087;42.662;23.466;2022-12-13T09:17:36;4.60;;;4.50;;
10096;SDS011;5087;42.662;23.466;2022-12-13T09:20:05;3.87;;;3.87;;
10096;SDS011;5087;42.662;23.466;2022-12-13T09:22:39;3.50;;;3.50;;
10096;SDS011;5087;42.662;23.466;2022-12-13T09:25:16;4.03;;;3.93;;
10096;SDS011;5087;42.662;23.466;2022-12-13T09:27:51;3.37;;;3.37;;
10096;SDS011;5087;42.662;23.466;2022-12-13T09:30:19;4.10;;;4.00;;
10096;SDS011;5087;42.662;23.466;2022-12-13T09:32:47;3.67;;;3.67;;
10096;SDS011;5087;42.662;23.466;2022-12-13T09:35:15;3.50;;;3.50;;
10096;SDS011;5087;42.662;23.466;2022-12-13T09:37:47;3.60;;;3.60;;
10096;SDS011;5087;42.662;23.466;2022-12-13T09:40:17;3.57;;;3.57;;
10096;SDS011;5087;42.662;23.466;2022-12-13T09:42:47;3.60;;;3.60;;
10096;SDS011;5087;42.662;23.466;2022-12-13T09:45:18;3.63;;;3.63;;
10096;SDS011;5087;42.662;23.466;2022-12-13T09:47:47;3.83;;;3.83;;
10096;SDS011;5087;42.662;23.466;2022-12-13T09:50:17;3.50;;;3.50;;
10096;SDS011;5087;42.662;23.466;2022-12-13T09:52:49;3.70;;;3.70;;
10096;SDS011;5087;42.662;23.466;2022-12-13T09:55:18;3.50;;;3.50;;
10096;SDS011;5087;42.662;23.466;2022-12-13T09:57:49;10.43;;;4.20;;
10096;SDS011;5087;42.662;23.466;2022-12-13T10:00:18;3.10;;;3.10;;
10096;SDS011;5087;42.662;23.466;2022-12-13T10:02:48;3.30;;;3.30;;
10096;SDS011;5087;42.662;23.466;2022-12-13T10:05:25;3.13;;;3.13;;
10096;SDS011;5087;42.662;23.466;2022-12-13T10:08:04;3.20;;;3.20;;
10096;SDS011;5087;42.662;23.466;2022-12-13T10:10:33;3.00;;;3.00;;
10096;SDS011;5087;42.662;23.466;2022-12-13T10:13:03;3.20;;;3.20;;
10096;SDS011;5087;42.662;23.466;2022-12-13T10:15:40;3.27;;;3.27;;
10096;SDS011;5087;42.662;23.466;2022-12-13T10:18:08;3.40;;;3.40;;
10096;SDS011;5087;42.662;23.466;2022-12-13T10:20:41;3.20;;;3.20;;
10096;SDS011;5087;42.662;23.466;2022-12-13T10:23:10;3.10;;;3.10;;
10096;SDS011;5087;42.662;23.466;2022-12-13T10:25:43;3.80;;;3.80;;
10096;SDS011;5087;42.662;23.466;2022-12-13T10:28:14;3.60;;;3.60;;
10096;SDS011;5087;42.662;23.466;2022-12-13T10:30:43;3.50;;;3.50;;
10096;SDS011;5087;42.662;23.466;2022-12-13T10:33:18;3.37;;;3.37;;
10096;SDS011;5087;42.662;23.466;2022-12-13T10:38:42;3.40;;;3.40;;
10096;SDS011;5087;42.662;23.466;2022-12-13T10:41:29;3.90;;;3.80;;
10096;SDS011;5087;42.662;23.466;2022-12-13T10:44:06;3.10;;;3.10;;
10096;SDS011;5087;42.662;23.466;2022-12-13T10:46:51;3.10;;;3.10;;
10096;SDS011;5087;42.662;23.466;2022-12-13T10:49:31;3.20;;;3.20;;
10096;SDS011;5087;42.662;23.466;2022-12-13T10:52:04;3.80;;;3.80;;
10096;SDS011;5087;42.662;23.466;2022-12-13T10:54:35;4.00;;;3.90;;
10096;SDS011;5087;42.662;23.466;2022-12-13T10:57:04;3.93;;;3.90;;
10096;SDS011;5087;42.662;23.466;2022-12-13T10:59:37;3.70;;;3.70;;
10096;SDS011;5087;42.662;23.466;2022-12-13T11:02:29;3.63;;;3.63;;
10096;SDS011;5087;42.662;23.466;2022-12-13T11:05:22;4.20;;;4.10;;
10096;SDS011;5087;42.662;23.466;2022-12-13T11:07:54;4.13;;;4.03;;
10096;SDS011;5087;42.662;23.466;2022-12-13T11:10:40;3.60;;;3.60;;
10096;SDS011;5087;42.662;23.466;2022-12-13T11:13:17;3.40;;;3.40;;
10096;SDS011;5087;42.662;23.466;2022-12-13T11:15:52;3.03;;;3.03;;
10096;SDS011;5087;42.662;23.466;2022-12-13T11:18:23;3.23;;;3.23;;
10096;SDS011;5087;42.662;23.466;2022-12-13T11:20:53;2.90;;;2.90;;
10096;SDS011;5087;42.662;23.466;2022-12-13T11:23:26;3.00;;;3.00;;
10096;SDS011;5087;42.662;23.466;2022-12-13T11:26:00;3.20;;;3.20;;
10096;SDS011;5087;42.662;23.466;2022-12-13T11:31:30;2.67;;;2.67;;
10096;SDS011;5087;42.662;23.466;2022-12-13T11:34:10;2.30;;;2.30;;
10096;SDS011;5087;42.662;23.466;2022-12-13T11:36:47;2.20;;;2.20;;
10096;SDS011;5087;42.662;23.466;2022-12-13T11:39:19;2.00;;;2.00;;
10096;SDS011;5087;42.662;23.466;2022-12-13T11:41:56;1.70;;;1.70;;
10096;SDS011;5087;42.662;23.466;2022-12-13T11:44:31;2.10;;;2.10;;
10096;SDS011;5087;42.662;23.466;2022-12-13T11:47:04;1.97;;;1.97;;
10096;SDS011;5087;42.662;23.466;2022-12-13T11:49:40;2.30;;;2.30;;
10096;SDS011;5087;42.662;23.466;2022-12-13T11:52:12;2.10;;;2.10;;
10096;SDS011;5087;42.662;23.466;2022-12-13T11:54:45;2.27;;;2.27;;
10096;SDS011;5087;42.662;23.466;2022-12-13T11:57:26;2.13;;;2.13;;
10096;SDS011;5087;42.662;23.466;2022-12-13T12:00:03;2.40;;;2.40;;
10096;SDS011;5087;42.662;23.466;2022-12-13T12:02:40;2.30;;;2.30;;
10096;SDS011;5087;42.662;23.466;2022-12-13T12:05:24;2.80;;;2.80;;
10096;SDS011;5087;42.662;23.466;2022-12-13T12:08:00;2.50;;;2.50;;
10096;SDS011;5087;42.662;23.466;2022-12-13T12:10:37;2.20;;;2.20;;
10096;SDS011;5087;42.662;23.466;2022-12-13T12:13:12;2.57;;;2.57;;
10096;SDS011;5087;42.662;23.466;2022-12-13T12:15:45;2.00;;;2.00;;
10096;SDS011;5087;42.662;23.466;2022-12-13T12:18:20;2.20;;;2.20;;
10096;SDS011;5087;42.662;23.466;2022-12-13T12:20:59;2.43;;;2.43;;
10096;SDS011;5087;42.662;23.466;2022-12-13T12:23:39;2.57;;;2.57;;
10096;SDS011;5087;42.662;23.466;2022-12-13T12:26:17;2.80;;;2.80;;
10096;SDS011;5087;42.662;23.466;2022-12-13T12:28:58;2.90;;;2.90;;
10096;SDS011;5087;42.662;23.466;2022-12-13T12:31:46;2.60;;;2.60;;
10096;SDS011;5087;42.662;23.466;2022-12-13T12:34:26;2.60;;;2.60;;
10096;SDS011;5087;42.662;23.466;2022-12-13T12:37:11;2.50;;;2.50;;
10096;SDS011;5087;42.662;23.466;2022-12-13T12:39:54;2.60;;;2.60;;
10096;SDS011;5087;42.662;23.466;2022-12-13T12:42:38;2.50;;;2.50;;
10096;SDS011;5087;42.662;23.466;2022-12-13T12:45:22;2.43;;;2.43;;
10096;SDS011;5087;42.662;23.466;2022-12-13T12:48:08;2.60;;;2.60;;
10096;SDS011;5087;42.662;23.466;2022-12-13T12:50:49;2.77;;;2.77;;
10096;SDS011;5087;42.662;23.466;2022-12-13T12:53:27;2.70;;;2.70;;
10096;SDS011;5087;42.662;23.466;2022-12-13T12:56:07;2.50;;;2.50;;
10096;SDS011;5087;42.662;23.466;2022-12-13T12:58:46;2.20;;;2.20;;
10096;SDS011;5087;42.662;23.466;2022-12-13T13:01:28;2.27;;;2.27;;
10096;SDS011;5087;42.662;23.466;2022-12-13T13:04:11;2.10;;;2.10;;
10096;SDS011;5087;42.662;23.466;2022-12-13T13:06:43;2.70;;;2.70;;
10096;SDS011;5087;42.662;23.466;2022-12-13T13:09:15;2.20;;;2.20;;
10096;SDS011;5087;42.662;23.466;2022-12-13T13:11:44;2.63;;;2.63;;
10096;SDS011;5087;42.662;23.466;2022-12-13T13:20:14;2.20;;;2.20;;
10096;SDS011;5087;42.662;23.466;2022-12-13T13:22:44;1.90;;;1.90;;
10096;SDS011;5087;42.662;23.466;2022-12-13T13:25:16;2.00;;;2.00;;
10096;SDS011;5087;42.662;23.466;2022-12-13T13:27:50;2.10;;;2.10;;
10096;SDS011;5087;42.662;23.466;2022-12-13T13:30:28;2.33;;;2.33;;
10096;SDS011;5087;42.662;23.466;2022-12-13T13:32:56;2.07;;;2.07;;
10096;SDS011;5087;42.662;23.466;2022-12-13T13:41:52;2.00;;;2.00;;
10096;SDS011;5087;42.662;23.466;2022-12-13T13:44:33;1.90;;;1.90;;
10096;SDS011;5087;42.662;23.466;2022-12-13T13:50:22;2.97;;;2.77;;
10096;SDS011;5087;42.662;23.466;2022-12-13T13:56:34;2.77;;;2.67;;
10096;SDS011;5087;42.662;23.466;2022-12-13T14:05:52;2.37;;;2.27;;
10096;SDS011;5087;42.662;23.466;2022-12-13T14:08:50;2.37;;;2.37;;
10096;SDS011;5087;42.662;23.466;2022-12-13T14:21:24;1.70;;;1.70;;
10096;SDS011;5087;42.662;23.466;2022-12-13T14:24:24;1.50;;;1.50;;
10096;SDS011;5087;42.662;23.466;2022-12-13T14:27:08;1.60;;;1.60;;
10096;SDS011;5087;42.662;23.466;2022-12-13T14:29:53;1.50;;;1.50;;
10096;SDS011;5087;42.662;23.466;2022-12-13T14:32:25;2.30;;;2.30;;
10096;SDS011;5087;42.662;23.466;2022-12-13T14:35:00;8.03;;;3.87;;
10096;SDS011;5087;42.662;23.466;2022-12-13T14:37:34;1.70;;;1.70;;
10096;SDS011;5087;42.662;23.466;2022-12-13T14:40:21;1.70;;;1.70;;
10096;SDS011;5087;42.662;23.466;2022-12-13T14:42:55;1.60;;;1.60;;
10096;SDS011;5087;42.662;23.466;2022-12-13T14:45:36;5.93;;;4.33;;
10096;SDS011;5087;42.662;23.466;2022-12-13T14:48:10;2.03;;;2.03;;
10096;SDS011;5087;42.662;23.466;2022-12-13T14:50:45;5.10;;;4.90;;
10096;SDS011;5087;42.662;23.466;2022-12-13T14:53:20;1.93;;;1.93;;
10096;SDS011;5087;42.662;23.466;2022-12-13T14:56:04;1.80;;;1.80;;
10096;SDS011;5087;42.662;23.466;2022-12-13T14:58:34;2.20;;;2.20;;
10096;SDS011;5087;42.662;23.466;2022-12-13T15:01:03;2.23;;;2.23;;
10096;SDS011;5087;42.662;23.466;2022-12-13T15:03:31;1.80;;;1.80;;
10096;SDS011;5087;42.662;23.466;2022-12-13T15:06:01;2.30;;;2.20;;
10096;SDS011;5087;42.662;23.466;2022-12-13T15:08:30;1.80;;;1.80;;
10096;SDS011;5087;42.662;23.466;2022-12-13T15:11:01;4.07;;;3.90;;
10096;SDS011;5087;42.662;23.466;2022-12-13T15:13:33;1.90;;;1.90;;
10096;SDS011;5087;42.662;23.466;2022-12-13T15:16:05;2.20;;;2.20;;
10096;SDS011;5087;42.662;23.466;2022-12-13T15:18:40;2.77;;;2.73;;
10096;SDS011;5087;42.662;23.466;2022-12-13T15:21:22;1.80;;;1.80;;
10096;SDS011;5087;42.662;23.466;2022-12-13T15:23:57;1.90;;;1.90;;
10096;SDS011;5087;42.662;23.466;2022-12-13T15:26:41;2.00;;;2.00;;
10096;SDS011;5087;42.662;23.466;2022-12-13T15:29:14;2.10;;;2.10;;
10096;SDS011;5087;42.662;23.466;2022-12-13T15:31:50;2.30;;;2.30;;
10096;SDS011;5087;42.662;23.466;2022-12-13T15:37:05;2.20;;;2.20;;
10096;SDS011;5087;42.662;23.466;2022-12-13T15:39:44;2.10;;;2.10;;
10096;SDS011;5087;42.662;23.466;2022-12-13T15:42:18;1.97;;;1.97;;
10096;SDS011;5087;42.662;23.466;2022-12-13T15:44:51;2.00;;;2.00;;
10096;SDS011;5087;42.662;23.466;2022-12-13T15:47:24;2.10;;;2.10;;
10096;SDS011;5087;42.662;23.466;2022-12-13T15:49:53;2.17;;;2.17;;
10096;SDS011;5087;42.662;23.466;2022-12-13T15:52:24;2.00;;;2.00;;
10096;SDS011;5087;42.662;23.466;2022-12-13T15:54:54;2.20;;;2.20;;
10096;SDS011;5087;42.662;23.466;2022-12-13T15:57:24;2.50;;;2.50;;
10096;SDS011;5087;42.662;23.466;2022-12-13T16:00:18;2.20;;;2.20;;
10096;SDS011;5087;42.662;23.466;2022-12-13T16:02:51;2.50;;;2.50;;
10096;SDS011;5087;42.662;23.466;2022-12-13T16:05:25;1.90;;;1.90;;